createdAt,value
2023-09-08T00:01:00.050Z,67.58
2023-09-08T00:03:32.522Z,67.70
2023-09-08T00:06:06.106Z,67.56
2023-09-08T00:08:38.314Z,67.74
2023-09-08T00:11:10.702Z,67.67
2023-09-08T00:13:46.224Z,67.78
2023-09-08T00:16:18.990Z,68.16
2023-09-08T00:18:51.421Z,68.28
2023-09-08T00:21:24.526Z,68.33
2023-09-08T00:23:56.684Z,68.35
2023-09-08T00:26:29.485Z,68.20
2023-09-08T00:29:05.402Z,68.34
2023-09-08T00:31:38.776Z,68.43
2023-09-08T00:34:10.635Z,68.64
2023-09-08T00:36:42.766Z,68.50
2023-09-08T00:39:16.192Z,68.51
2023-09-08T00:41:49.697Z,68.48
2023-09-08T00:44:26.041Z,68.77
2023-09-08T00:46:58.899Z,68.67
2023-09-08T00:49:31.703Z,68.82
2023-09-08T00:52:42.685Z,69.20
2023-09-08T00:55:15.692Z,68.99
2023-09-08T00:57:48.784Z,69.06
2023-09-08T01:00:23.503Z,69.01
2023-09-08T01:02:54.789Z,69.12
2023-09-08T01:05:26.708Z,69.12
2023-09-08T01:07:58.298Z,69.59
2023-09-08T01:10:30.505Z,69.18
2023-09-08T01:13:01.628Z,69.37
2023-09-08T01:15:35.656Z,69.48
2023-09-08T01:18:12.317Z,69.22
2023-09-08T01:21:05.196Z,69.46
2023-09-08T01:23:54.058Z,69.68
2023-09-08T01:26:31.828Z,69.46
2023-09-08T01:29:06.901Z,69.68
2023-09-08T01:31:39.616Z,69.68
2023-09-08T01:34:16.651Z,69.58
2023-09-08T01:36:50.618Z,69.94
2023-09-08T01:39:24.121Z,69.96
2023-09-08T01:41:59.678Z,70.53
2023-09-08T01:44:32.008Z,70.27
2023-09-08T01:47:04.937Z,70.44
2023-09-08T01:49:36.970Z,70.88
2023-09-08T01:52:10.413Z,70.73
2023-09-08T01:54:42.329Z,70.85
2023-09-08T01:57:16.698Z,70.84
2023-09-08T01:59:49.811Z,70.95
2023-09-08T02:02:22.002Z,70.98
2023-09-08T02:04:54.150Z,70.90
2023-09-08T02:07:27.120Z,71.05
2023-09-08T02:09:59.275Z,71.19
2023-09-08T02:12:34.479Z,71.24
2023-09-08T02:15:08.708Z,71.16
2023-09-08T02:17:40.839Z,71.20
2023-09-08T02:20:16.105Z,71.26
2023-09-08T02:22:49.833Z,70.99
2023-09-08T02:25:22.657Z,71.17
2023-09-08T02:27:57.788Z,71.33
2023-09-08T02:30:30.386Z,71.28
2023-09-08T02:33:04.601Z,71.30
2023-09-08T02:35:41.739Z,71.43
2023-09-08T02:38:14.717Z,71.25
2023-09-08T02:40:48.597Z,71.22
2023-09-08T02:43:23.975Z,71.62
2023-09-08T02:45:56.788Z,71.59
2023-09-08T02:48:29.385Z,71.19
2023-09-08T02:51:01.394Z,71.42
2023-09-08T02:53:33.623Z,71.35
2023-09-08T02:56:07.469Z,71.41
2023-09-08T02:58:41.684Z,71.48
2023-09-08T03:01:16.540Z,71.23
2023-09-08T03:03:48.868Z,71.49
2023-09-08T03:06:24.046Z,71.58
2023-09-08T03:08:55.948Z,71.63
2023-09-08T03:11:29.257Z,71.64
2023-09-08T03:14:03.218Z,71.78
2023-09-08T03:16:36.365Z,71.62
2023-09-08T03:19:09.371Z,71.74
2023-09-08T03:21:41.910Z,71.75
2023-09-08T03:24:13.771Z,72.08
2023-09-08T03:26:45.095Z,71.86
2023-09-08T03:29:19.519Z,71.96
2023-09-08T03:31:52.123Z,71.87
2023-09-08T03:34:25.274Z,72.00
2023-09-08T03:36:58.918Z,72.34
2023-09-08T03:39:31.923Z,72.30
2023-09-08T03:42:04.180Z,72.15
2023-09-08T03:44:38.558Z,72.27
2023-09-08T03:47:10.915Z,72.31
2023-09-08T03:49:42.649Z,72.40
2023-09-08T03:52:14.913Z,72.44
2023-09-08T03:54:47.895Z,72.32
2023-09-08T03:57:20.222Z,72.21
2023-09-08T03:59:54.309Z,72.78
2023-09-08T04:02:26.596Z,72.52
2023-09-08T04:04:59.357Z,72.50
2023-09-08T04:07:32.173Z,72.87
2023-09-08T04:10:04.554Z,72.61
2023-09-08T04:12:36.582Z,72.60
2023-09-08T04:15:12.802Z,72.78
2023-09-08T04:17:44.691Z,72.66
2023-09-08T04:20:18.398Z,73.16
2023-09-08T04:22:50.650Z,73.03
2023-09-08T04:25:23.117Z,72.92
2023-09-08T04:27:54.682Z,72.93
2023-09-08T04:30:28.860Z,73.50
2023-09-08T04:33:03.896Z,73.77
2023-09-08T04:35:38.441Z,73.43
2023-09-08T04:38:13.721Z,73.47
2023-09-08T04:40:47.447Z,73.77
2023-09-08T04:43:21.721Z,73.72
2023-09-08T04:45:59.229Z,74.00
2023-09-08T04:48:33.775Z,73.79
2023-09-08T04:51:10.016Z,73.60
2023-09-08T04:53:45.632Z,73.44
2023-09-08T04:56:22.302Z,73.59
2023-09-08T04:59:00.864Z,73.69
2023-09-08T05:01:39.422Z,73.79
2023-09-08T05:04:16.449Z,73.60
2023-09-08T05:06:51.184Z,73.62
2023-09-08T05:09:29.191Z,73.32
2023-09-08T05:12:04.361Z,72.96
2023-09-08T05:14:40.824Z,72.78
2023-09-08T05:17:17.605Z,72.51
2023-09-08T05:19:52.425Z,72.33
2023-09-08T05:22:29.593Z,72.10
2023-09-08T05:25:06.747Z,72.16
2023-09-08T05:27:39.056Z,71.64
2023-09-08T05:30:15.678Z,71.50
2023-09-08T05:32:53.462Z,70.72
2023-09-08T05:35:26.288Z,70.31
2023-09-08T05:38:01.143Z,70.40
2023-09-08T05:40:36.764Z,69.80
2023-09-08T05:43:10.756Z,69.02
2023-09-08T05:45:44.890Z,68.51
2023-09-08T05:48:23.832Z,68.45
2023-09-08T05:51:00.102Z,67.99
2023-09-08T05:53:38.006Z,66.71
2023-09-08T05:56:14.061Z,66.19
2023-09-08T05:58:53.000Z,65.23
2023-09-08T06:01:30.029Z,64.95
2023-09-08T06:04:08.262Z,63.16
2023-09-08T06:06:45.080Z,62.28
2023-09-08T06:09:21.480Z,61.04
2023-09-08T06:11:57.226Z,59.70
2023-09-08T06:14:30.147Z,57.96
2023-09-08T06:17:06.134Z,57.32
2023-09-08T06:19:44.994Z,55.49
2023-09-08T06:22:17.958Z,55.30
2023-09-08T06:24:52.768Z,53.53
2023-09-08T06:27:27.883Z,52.54
2023-09-08T06:30:04.420Z,51.73
2023-09-08T06:32:42.260Z,50.47
2023-09-08T06:35:22.244Z,49.95
2023-09-08T06:38:01.803Z,49.64
2023-09-08T06:40:39.857Z,49.38
2023-09-08T06:43:12.934Z,47.91
2023-09-08T06:45:59.266Z,47.08
2023-09-08T06:48:36.109Z,45.99
2023-09-08T06:51:13.504Z,45.21
2023-09-08T06:53:50.891Z,44.06
2023-09-08T06:56:31.551Z,42.52
2023-09-08T06:59:08.359Z,42.41
2023-09-08T07:01:44.918Z,41.16
2023-09-08T07:04:24.642Z,40.39
2023-09-08T07:07:09.180Z,39.19
2023-09-08T07:09:53.897Z,38.47
2023-09-08T07:12:32.064Z,37.85
2023-09-08T07:15:11.563Z,37.91
2023-09-08T07:17:49.365Z,36.70
2023-09-08T07:20:23.986Z,36.29
2023-09-08T07:22:59.058Z,35.50
2023-09-08T07:25:30.890Z,35.39
2023-09-08T07:28:04.709Z,35.24
2023-09-08T07:30:38.883Z,35.40
2023-09-08T07:33:11.888Z,34.10
2023-09-08T07:35:46.864Z,33.92
2023-09-08T07:38:23.385Z,34.30
2023-09-08T07:40:57.665Z,34.34
2023-09-08T07:43:32.710Z,33.88
2023-09-08T07:46:05.983Z,33.94
2023-09-08T07:48:39.537Z,33.63
2023-09-08T07:51:12.481Z,32.35
2023-09-08T07:53:48.112Z,33.21
2023-09-08T07:56:22.619Z,32.97
2023-09-08T07:58:58.394Z,32.34
2023-09-08T08:01:35.280Z,32.94
2023-09-08T08:04:11.081Z,32.33
2023-09-08T08:06:53.077Z,31.83
2023-09-08T08:09:31.443Z,32.40
2023-09-08T08:12:07.627Z,32.14
2023-09-08T08:14:43.349Z,31.55
2023-09-08T08:17:19.135Z,31.23
2023-09-08T08:19:53.440Z,30.56
2023-09-08T08:22:30.236Z,29.99
2023-09-08T08:25:11.721Z,29.58
2023-09-08T08:27:47.944Z,28.89
2023-09-08T08:30:24.387Z,28.08
2023-09-08T08:32:59.575Z,27.95
2023-09-08T08:35:33.939Z,27.29
2023-09-08T08:38:07.361Z,28.70
2023-09-08T08:40:46.099Z,28.86
2023-09-08T08:43:22.005Z,28.68
2023-09-08T08:46:00.805Z,29.56
2023-09-08T08:48:37.666Z,30.11
2023-09-08T08:51:16.462Z,29.39
2023-09-08T08:53:50.062Z,29.87
2023-09-08T08:56:26.052Z,30.39
2023-09-08T08:59:00.555Z,30.42
2023-09-08T09:01:33.475Z,30.60
2023-09-08T09:04:10.923Z,30.36
2023-09-08T09:06:44.905Z,30.78
2023-09-08T09:09:22.558Z,30.27
2023-09-08T09:12:05.720Z,29.58
2023-09-08T09:14:41.210Z,30.46
2023-09-08T09:17:18.073Z,29.78
2023-09-08T09:19:54.785Z,30.71
2023-09-08T09:22:42.293Z,30.84
2023-09-08T09:25:29.415Z,30.91
2023-09-08T09:28:08.360Z,31.48
2023-09-08T09:30:55.354Z,32.25
2023-09-08T09:33:32.057Z,32.37
2023-09-08T09:36:08.558Z,32.81
2023-09-08T09:38:44.384Z,32.53
2023-09-08T09:41:19.665Z,33.24
2023-09-08T09:44:01.277Z,32.70
2023-09-08T09:46:40.094Z,31.78
2023-09-08T09:49:20.181Z,32.16
2023-09-08T09:51:56.493Z,33.33
2023-09-08T09:54:31.516Z,33.45
2023-09-08T09:57:07.354Z,33.36
2023-09-08T09:59:46.044Z,33.00
2023-09-08T10:02:23.916Z,32.95
2023-09-08T10:04:59.742Z,33.34
2023-09-08T10:07:36.157Z,33.42
2023-09-08T10:10:12.406Z,32.71
2023-09-08T10:12:53.056Z,33.15
2023-09-08T10:15:32.737Z,33.83
2023-09-08T10:18:11.664Z,33.90
2023-09-08T10:20:50.626Z,33.68
2023-09-08T10:23:34.951Z,34.51
2023-09-08T10:26:15.852Z,34.04
2023-09-08T10:28:51.483Z,34.29
2023-09-08T10:31:33.429Z,33.94
2023-09-08T10:34:10.058Z,34.32
2023-09-08T10:36:44.731Z,34.11
2023-09-08T10:39:39.557Z,34.15
2023-09-08T10:42:32.643Z,33.09
2023-09-08T10:45:20.119Z,33.79
2023-09-08T10:48:06.934Z,33.63
2023-09-08T10:50:46.954Z,33.63
2023-09-08T10:53:27.342Z,34.86
2023-09-08T10:58:45.190Z,34.16
2023-09-08T11:01:26.644Z,33.84
2023-09-08T11:04:13.716Z,33.88
2023-09-08T11:06:51.588Z,34.22
2023-09-08T11:09:27.364Z,33.66
2023-09-08T11:12:02.251Z,32.78
2023-09-08T11:14:35.697Z,31.64
2023-09-08T11:17:12.888Z,32.76
2023-09-08T11:19:59.963Z,32.68
2023-09-08T11:22:37.858Z,32.97
2023-09-08T11:25:18.597Z,32.94
2023-09-08T11:27:56.222Z,32.86
2023-09-08T11:30:31.446Z,32.01
2023-09-08T11:33:07.244Z,32.50
2023-09-08T11:35:46.259Z,31.69
2023-09-08T11:38:21.855Z,32.12
2023-09-08T11:40:55.579Z,32.29
2023-09-08T11:43:30.636Z,32.43
2023-09-08T11:46:05.309Z,30.84
2023-09-08T11:48:42.845Z,31.38
2023-09-08T11:51:22.632Z,31.93
2023-09-08T11:53:58.733Z,32.40
2023-09-08T11:56:34.243Z,31.71
2023-09-08T11:59:26.115Z,31.57
2023-09-08T12:01:58.298Z,31.62
2023-09-08T12:04:33.493Z,32.64
2023-09-08T12:07:07.345Z,33.38
2023-09-08T12:09:40.081Z,33.63
2023-09-08T12:12:18.523Z,33.25
2023-09-08T12:14:58.330Z,33.91
2023-09-08T12:17:31.768Z,34.31
2023-09-08T12:20:19.555Z,34.45
2023-09-08T12:22:57.259Z,34.57
2023-09-08T12:25:36.225Z,34.88
2023-09-08T12:28:14.485Z,35.20
2023-09-08T12:30:57.710Z,35.07
2023-09-08T12:33:34.014Z,35.36
2023-09-08T12:36:16.654Z,35.07
2023-09-08T12:38:55.953Z,35.26
2023-09-08T12:41:28.961Z,35.27
2023-09-08T12:44:03.717Z,35.02
2023-09-08T12:46:40.255Z,34.96
2023-09-08T12:49:13.321Z,34.70
2023-09-08T12:51:46.947Z,34.92
2023-09-08T12:54:21.596Z,35.18
2023-09-08T12:56:56.307Z,35.44
2023-09-08T12:59:31.120Z,35.58
2023-09-08T13:02:09.341Z,35.99
2023-09-08T13:04:50.837Z,37.16
2023-09-08T13:07:28.456Z,37.23
2023-09-08T13:10:04.716Z,37.04
2023-09-08T13:12:39.825Z,37.63
2023-09-08T13:15:15.893Z,37.77
2023-09-08T13:17:56.001Z,38.00
2023-09-08T13:20:30.534Z,38.05
2023-09-08T13:23:04.871Z,37.96
2023-09-08T13:25:39.596Z,37.69
2023-09-08T13:28:16.057Z,38.04
2023-09-08T13:30:52.481Z,38.30
2023-09-08T13:33:33.127Z,38.18
2023-09-08T13:36:08.077Z,37.66
2023-09-08T13:38:43.705Z,37.44
2023-09-08T13:41:20.524Z,38.15
2023-09-08T13:43:55.589Z,37.72
2023-09-08T13:46:31.814Z,37.53
2023-09-08T13:49:10.108Z,37.41
2023-09-08T13:51:49.051Z,37.06
2023-09-08T13:54:30.289Z,37.65
2023-09-08T13:57:08.923Z,37.93
2023-09-08T13:59:49.438Z,37.91
2023-09-08T14:02:42.349Z,37.81
2023-09-08T14:05:28.703Z,37.55
2023-09-08T14:08:11.156Z,38.15
2023-09-08T14:13:35.844Z,38.37
2023-09-08T14:16:10.276Z,38.36
2023-09-08T14:18:45.110Z,38.80
2023-09-08T14:21:23.845Z,38.73
2023-09-08T14:23:58.076Z,38.29
2023-09-08T14:26:34.956Z,38.67
2023-09-08T14:29:08.931Z,38.81
2023-09-08T14:31:44.153Z,38.71
2023-09-08T14:34:18.367Z,38.54
2023-09-08T14:36:56.115Z,39.05
2023-09-08T14:39:31.326Z,39.10
2023-09-08T14:42:04.188Z,39.53
2023-09-08T14:44:38.134Z,39.45
2023-09-08T14:47:12.482Z,38.96
2023-09-08T14:49:49.833Z,39.08
2023-09-08T14:52:27.818Z,39.76
2023-09-08T14:55:00.525Z,39.59
2023-09-08T14:57:35.401Z,39.84
2023-09-08T15:00:10.915Z,39.75
2023-09-08T15:02:43.950Z,40.13
2023-09-08T15:05:17.192Z,40.18
2023-09-08T15:07:53.214Z,39.42
2023-09-08T15:10:30.510Z,40.22
2023-09-08T15:13:06.342Z,39.59
2023-09-08T15:15:38.054Z,40.07
2023-09-08T15:18:11.123Z,40.16
2023-09-08T15:20:43.129Z,40.51
2023-09-08T15:23:18.382Z,40.10
2023-09-08T15:25:56.685Z,40.59
2023-09-08T15:28:29.465Z,40.35
2023-09-08T15:31:03.563Z,40.95
2023-09-08T15:33:37.338Z,41.52
2023-09-08T15:36:11.154Z,41.22
2023-09-08T15:38:46.557Z,41.00
2023-09-08T15:41:22.004Z,41.93
2023-09-08T15:43:56.908Z,42.09
2023-09-08T15:46:28.925Z,42.04
2023-09-08T15:49:01.272Z,41.76
2023-09-08T15:51:34.107Z,42.49
2023-09-08T15:54:10.346Z,42.15
2023-09-08T15:56:41.942Z,42.79
2023-09-08T15:59:13.960Z,42.83
2023-09-08T16:01:46.629Z,42.39
2023-09-08T16:04:18.470Z,42.76
2023-09-08T16:06:51.190Z,42.63
2023-09-08T16:09:26.014Z,42.91
2023-09-08T16:12:01.526Z,42.94
2023-09-08T16:14:33.395Z,43.69
2023-09-08T16:17:05.361Z,43.94
2023-09-08T16:19:39.225Z,44.41
2023-09-08T16:22:11.418Z,44.37
2023-09-08T16:24:45.916Z,44.45
2023-09-08T16:27:19.113Z,44.05
2023-09-08T16:29:51.499Z,44.80
2023-09-08T16:32:24.538Z,44.62
2023-09-08T16:34:56.526Z,44.61
2023-09-08T16:37:29.768Z,44.88
2023-09-08T16:40:08.585Z,45.06
2023-09-08T16:43:05.667Z,45.95
2023-09-08T16:45:39.616Z,45.55
2023-09-08T16:48:11.339Z,46.10
2023-09-08T16:50:42.684Z,46.77
2023-09-08T16:53:14.011Z,46.72
2023-09-08T16:55:47.894Z,47.18
2023-09-08T16:58:19.307Z,47.10
2023-09-08T17:00:50.573Z,47.31
2023-09-08T17:03:22.263Z,47.71
2023-09-08T17:05:53.788Z,47.48
2023-09-08T17:08:26.060Z,47.86
2023-09-08T17:10:59.917Z,47.95
2023-09-08T17:13:31.378Z,48.53
2023-09-08T17:16:03.697Z,48.76
2023-09-08T17:18:35.521Z,49.13
2023-09-08T17:21:09.434Z,48.83
2023-09-08T17:23:40.864Z,49.43
2023-09-08T17:26:15.089Z,49.33
2023-09-08T17:28:47.127Z,49.61
2023-09-08T17:31:21.387Z,49.93
2023-09-08T17:33:53.196Z,50.03
2023-09-08T17:36:24.632Z,50.00
2023-09-08T17:38:56.659Z,50.40
2023-09-08T17:41:30.580Z,50.85
2023-09-08T17:44:03.580Z,50.93
2023-09-08T17:46:37.776Z,50.84
2023-09-08T17:49:10.382Z,51.11
2023-09-08T17:51:42.720Z,51.36
2023-09-08T17:54:15.088Z,52.12
2023-09-08T17:56:50.053Z,51.96
2023-09-08T17:59:25.063Z,52.77
2023-09-08T18:01:57.276Z,52.59
2023-09-08T18:04:29.249Z,52.88
2023-09-08T18:07:01.408Z,52.97
2023-09-08T18:09:34.075Z,53.16
2023-09-08T18:12:09.773Z,53.58
2023-09-08T18:14:43.446Z,54.03
2023-09-08T18:17:15.236Z,53.90
2023-09-08T18:19:47.808Z,54.52
2023-09-08T18:22:20.187Z,55.07
2023-09-08T18:24:52.734Z,54.90
2023-09-08T18:27:28.640Z,54.66
2023-09-08T18:30:00.634Z,55.60
2023-09-08T18:32:33.445Z,55.63
2023-09-08T18:35:12.152Z,55.59
2023-09-08T18:37:44.926Z,55.80
2023-09-08T18:40:17.982Z,55.68
2023-09-08T18:42:52.844Z,55.90
2023-09-08T18:45:25.400Z,55.78
2023-09-08T18:47:56.982Z,56.51
2023-09-08T18:50:28.730Z,56.48
2023-09-08T18:53:01.182Z,57.08
2023-09-08T18:55:33.546Z,57.39
2023-09-08T18:58:10.437Z,57.70
2023-09-08T19:00:48.108Z,57.50
2023-09-08T19:03:20.598Z,60.20
2023-09-08T19:05:53.696Z,59.05
2023-09-08T19:08:25.871Z,56.33
2023-09-08T19:10:59.035Z,55.57
2023-09-08T19:13:33.389Z,50.54
2023-09-08T19:16:05.527Z,48.87
2023-09-08T19:18:38.466Z,53.37
2023-09-08T19:21:11.425Z,57.54
2023-09-08T19:23:45.820Z,63.56
2023-09-08T19:26:17.482Z,67.44
2023-09-08T19:28:51.536Z,71.54
2023-09-08T19:31:23.677Z,72.88
2023-09-08T19:33:57.776Z,75.25
2023-09-08T19:36:29.572Z,74.42
2023-09-08T19:39:01.817Z,75.45
2023-09-08T19:41:33.670Z,77.43
2023-09-08T19:44:08.710Z,77.89
2023-09-08T19:46:40.113Z,77.63
2023-09-08T19:49:12.340Z,79.55
2023-09-08T19:51:43.704Z,83.76
2023-09-08T19:54:16.269Z,83.59
2023-09-08T19:56:48.493Z,100.00
2023-09-08T19:59:23.889Z,92.16
2023-09-08T20:01:57.496Z,78.95
2023-09-08T20:04:29.057Z,68.89
2023-09-08T20:07:01.185Z,62.78
2023-09-08T20:09:34.734Z,60.30
2023-09-08T20:12:06.562Z,56.23
2023-09-08T20:14:41.307Z,53.28
2023-09-08T20:17:13.221Z,51.61
2023-09-08T20:19:44.798Z,51.32
2023-09-08T20:22:16.314Z,49.40
2023-09-08T20:24:48.110Z,48.36
2023-09-08T20:27:20.029Z,47.80
2023-09-08T20:29:57.681Z,47.39
2023-09-08T20:32:29.549Z,47.89
2023-09-08T20:35:00.837Z,47.79
2023-09-08T20:37:32.613Z,48.29
2023-09-08T20:40:04.759Z,48.82
2023-09-08T20:42:37.271Z,49.27
2023-09-08T20:45:12.678Z,50.35
2023-09-08T20:47:46.635Z,51.19
2023-09-08T20:50:19.017Z,51.95
2023-09-08T20:52:50.756Z,52.99
2023-09-08T20:55:24.282Z,53.56
2023-09-08T20:57:56.185Z,54.22
2023-09-08T21:00:34.327Z,54.77
2023-09-08T21:03:06.419Z,55.99
2023-09-08T21:05:39.246Z,56.43
2023-09-08T21:08:11.830Z,57.08
2023-09-08T21:10:45.382Z,57.83
2023-09-08T21:13:17.415Z,58.45
2023-09-08T21:15:52.416Z,58.88
2023-09-08T21:18:25.467Z,59.11
2023-09-08T21:20:58.940Z,59.71
2023-09-08T21:23:32.761Z,60.00
2023-09-08T21:26:11.105Z,60.38
2023-09-08T21:28:44.150Z,61.00
2023-09-08T21:31:18.615Z,61.41
2023-09-08T21:33:51.471Z,61.46
2023-09-08T21:36:24.529Z,61.93
2023-09-08T21:38:59.856Z,62.33
2023-09-08T21:41:34.773Z,62.35
2023-09-08T21:44:07.731Z,62.86
2023-09-08T21:46:43.777Z,62.99
2023-09-08T21:49:16.487Z,62.64
2023-09-08T21:51:50.055Z,63.07
2023-09-08T21:54:22.488Z,62.94
2023-09-08T21:56:55.622Z,63.62
2023-09-08T21:59:30.723Z,63.34
2023-09-08T22:02:06.747Z,63.65
2023-09-08T22:04:39.806Z,63.93
2023-09-08T22:07:12.890Z,64.11
2023-09-08T22:09:45.747Z,64.10
2023-09-08T22:12:22.168Z,64.44
2023-09-08T22:14:55.793Z,64.38
2023-09-08T22:17:30.095Z,64.50
2023-09-08T22:20:02.445Z,64.53
2023-09-08T22:22:36.388Z,64.28
2023-09-08T22:25:09.463Z,64.53
2023-09-08T22:27:43.031Z,64.37
2023-09-08T22:30:17.339Z,64.82
2023-09-08T22:32:51.553Z,65.10
2023-09-08T22:35:22.671Z,64.93
2023-09-08T22:37:53.913Z,64.98
2023-09-08T22:40:25.572Z,66.47
2023-09-08T22:42:56.744Z,67.67
2023-09-08T22:45:29.375Z,65.86
2023-09-08T22:48:05.077Z,62.62
2023-09-08T22:50:37.409Z,59.07
2023-09-08T22:53:12.182Z,56.51
2023-09-08T22:55:44.404Z,54.48
2023-09-08T22:58:19.140Z,52.54
2023-09-08T23:00:51.260Z,51.04
2023-09-08T23:03:25.738Z,50.12
2023-09-08T23:05:58.815Z,49.37
2023-09-08T23:08:31.400Z,49.79
2023-09-08T23:11:04.045Z,49.61
2023-09-08T23:13:36.938Z,49.95
2023-09-08T23:16:09.626Z,50.34
2023-09-08T23:18:44.745Z,50.82
2023-09-08T23:21:18.106Z,51.48
2023-09-08T23:23:50.256Z,52.44
2023-09-08T23:26:22.835Z,53.10
2023-09-08T23:28:56.399Z,54.22
2023-09-08T23:31:31.026Z,55.18
2023-09-08T23:34:08.068Z,56.46
2023-09-08T23:36:40.310Z,56.86
2023-09-08T23:39:15.105Z,57.53
2023-09-08T23:41:48.701Z,58.46
2023-09-08T23:44:21.577Z,59.38
2023-09-08T23:46:54.288Z,59.70
2023-09-08T23:49:30.960Z,60.59
2023-09-08T23:52:03.810Z,61.15
2023-09-08T23:54:35.445Z,61.42
2023-09-08T23:57:08.396Z,61.99
2023-09-08T23:59:41.027Z,62.65
